Jones Creek, Texas
Current Conditions -  °F | °C
As of 10:15 AM on Saturday 25 Oct 2014 (Local Time) from KARM Reporting Station
Clear Clear  
Wind Chill: 73°   Ceiling: Unl
Heat Index: 73°   Visibility: 10mi
Dew Point: 58°   Wind: 0mph
Humidity: 59%   Direction: NA
Pressure: 30.2"   Gusts: NA
Location:  29.1916°N, 96.2212°W
Report Text: KARM 251515Z AUTO 00000KT 10SM CLR 23/14 A3020 RMK AO2 T02260143
Loading
Personal Weather Stations






























Interactive Weather Map
Tropical Storm Tracking
New forecast layout! Learn more

10-Day Weather Forecast

Advertisements
Track Severe Weather on mobile